Time;durP1;ratioP1;P1;durP2;ratioP2;P2;SDS_P1;SDS_P2;PMS_P1;PMS_P2;Temp;Humidity;BMP_temperature;BMP_pressure;BME280_temperature;BME280_humidity;BME280_pressure;Samples;Min_cycle;Max_cycle;Signal;HPM_P1;HPM_P2
2023/08/07 00:00:17;;;;;;;3.70;2.33;;;14.60;99.90;;;;;;5090024;28;20335;-73
2023/08/07 00:02:43;;;;;;;4.27;2.90;;;14.60;99.90;;;;;;5090688;28;20874;-73
2023/08/07 00:05:08;;;;;;;2.50;2.30;;;14.60;99.90;;;;;;5090927;28;20163;-74
2023/08/07 00:07:34;;;;;;;2.60;2.30;;;14.60;99.90;;;;;;5090816;28;20186;-72
2023/08/07 00:10:01;;;;;;;3.30;2.63;;;14.60;99.90;;;;;;5090799;28;20823;-73
2023/08/07 00:12:27;;;;;;;3.27;2.80;;;14.60;99.90;;;;;;5090668;28;20192;-72
2023/08/07 00:14:53;;;;;;;3.50;2.90;;;14.60;99.90;;;;;;5090600;28;20919;-73
2023/08/07 00:17:18;;;;;;;3.90;2.73;;;14.60;99.90;;;;;;5090354;28;20443;-72
2023/08/07 00:19:44;;;;;;;4.00;2.70;;;14.60;99.90;;;;;;5090302;28;20405;-73
2023/08/07 00:22:09;;;;;;;3.50;2.90;;;14.60;99.90;;;;;;5090688;28;20170;-73
2023/08/07 00:24:35;;;;;;;3.83;3.20;;;14.60;99.90;;;;;;5090433;28;20170;-74
2023/08/07 00:27:01;;;;;;;3.13;2.83;;;14.60;99.90;;;;;;5090473;28;20591;-73
2023/08/07 00:29:27;;;;;;;3.33;2.70;;;14.60;99.90;;;;;;5090264;28;20232;-74
2023/08/07 00:31:52;;;;;;;6.13;4.33;;;14.60;99.90;;;;;;5090299;28;20393;-72
2023/08/07 00:34:18;;;;;;;4.30;3.37;;;14.60;99.90;;;;;;5090137;28;20636;-73
2023/08/07 00:36:43;;;;;;;4.17;3.77;;;14.70;99.90;;;;;;5090144;28;20266;-73
2023/08/07 00:39:09;;;;;;;4.60;3.20;;;14.60;99.90;;;;;;5090077;28;20749;-74
2023/08/07 00:41:35;;;;;;;4.53;3.20;;;14.60;99.90;;;;;;5090408;28;20159;-74
2023/08/07 00:44:00;;;;;;;6.00;3.37;;;14.60;99.90;;;;;;5090258;28;20162;-73
2023/08/07 00:46:27;;;;;;;7.13;3.50;;;14.60;99.90;;;;;;5089999;28;20256;-73
2023/08/07 00:48:53;;;;;;;3.70;3.10;;;14.60;99.90;;;;;;5090166;28;20243;-73
2023/08/07 00:51:20;;;;;;;4.80;3.73;;;14.60;99.90;;;;;;5089909;28;20428;-73
2023/08/07 00:53:47;;;;;;;4.43;3.10;;;14.60;99.90;;;;;;5089767;28;20803;-74
2023/08/07 00:56:13;;;;;;;2.87;2.57;;;14.70;99.90;;;;;;5090298;28;20416;-74
2023/08/07 00:58:40;;;;;;;4.73;3.30;;;14.60;99.90;;;;;;5071922;28;20551;-73
2023/08/07 01:01:06;;;;;;;4.57;3.67;;;14.70;99.90;;;;;;5090408;28;20397;-73
2023/08/07 01:03:31;;;;;;;6.27;3.40;;;14.70;99.90;;;;;;5090555;28;20492;-73
2023/08/07 01:05:57;;;;;;;5.90;4.03;;;14.70;99.90;;;;;;5090427;28;20508;-73
2023/08/07 01:08:24;;;;;;;3.30;3.00;;;14.70;99.90;;;;;;5090018;28;20216;-73
2023/08/07 01:11:25;;;;;;;2.93;2.70;;;14.70;99.90;;;;;;5090527;28;20169;-72
2023/08/07 01:14:03;;;;;;;3.13;2.93;;;14.70;99.90;;;;;;5070337;28;20528;-73
2023/08/07 01:16:59;;;;;;;5.23;3.97;;;14.70;99.90;;;;;;5076105;28;20421;-73
2023/08/07 01:19:27;;;;;;;3.90;3.50;;;14.70;99.90;;;;;;5066766;28;20420;-73
2023/08/07 01:22:16;;;;;;;4.00;2.80;;;14.80;99.90;;;;;;5094009;28;20438;-74
2023/08/07 01:24:44;;;;;;;4.83;3.23;;;14.70;99.90;;;;;;5093986;28;20400;-73
2023/08/07 01:27:18;;;;;;;3.90;3.00;;;14.80;99.90;;;;;;5089855;28;20463;-73
2023/08/07 01:29:50;;;;;;;4.80;3.00;;;14.80;99.90;;;;;;5094133;28;20396;-74
2023/08/07 01:32:24;;;;;;;3.30;2.93;;;14.70;99.90;;;;;;5093881;28;20444;-74
2023/08/07 01:34:52;;;;;;;4.73;3.30;;;14.80;99.90;;;;;;5093862;28;20405;-74
2023/08/07 01:37:18;;;;;;;3.90;3.50;;;14.80;99.90;;;;;;5093822;28;20429;-74
2023/08/07 01:39:46;;;;;;;3.80;2.80;;;14.80;99.90;;;;;;5093527;28;20734;-73
2023/08/07 01:42:12;;;;;;;3.93;3.10;;;14.80;99.90;;;;;;5093764;28;20483;-73
2023/08/07 01:44:37;;;;;;;3.73;2.90;;;14.80;99.90;;;;;;5093228;28;20413;-74
2023/08/07 01:47:03;;;;;;;7.53;4.43;;;14.80;99.90;;;;;;5090667;28;20210;-73
2023/08/07 01:49:29;;;;;;;3.60;3.20;;;14.80;99.90;;;;;;5093326;28;20185;-73
2023/08/07 01:51:55;;;;;;;4.47;3.50;;;14.70;99.90;;;;;;5093213;28;20449;-73
2023/08/07 01:54:20;;;;;;;3.63;3.33;;;14.70;99.90;;;;;;5093281;28;20179;-72
2023/08/07 01:56:46;;;;;;;5.03;3.27;;;14.70;99.90;;;;;;5074803;28;20191;-73
2023/08/07 01:59:11;;;;;;;3.90;3.00;;;14.70;99.90;;;;;;5093361;28;20160;-72
2023/08/07 02:01:37;;;;;;;4.07;3.67;;;14.60;99.90;;;;;;5093163;28;20172;-73
2023/08/07 02:04:03;;;;;;;7.23;3.50;;;14.60;99.90;;;;;;5093355;28;20690;-73
2023/08/07 02:06:28;;;;;;;3.67;3.37;;;14.50;99.90;;;;;;5093131;28;20720;-74
2023/08/07 02:08:54;;;;;;;4.60;3.20;;;14.50;99.90;;;;;;5093136;28;20172;-76
2023/08/07 02:11:20;;;;;;;4.90;3.93;;;14.50;99.90;;;;;;5093353;28;20244;-72
2023/08/07 02:13:45;;;;;;;5.30;3.80;;;14.50;99.90;;;;;;5093078;28;20192;-72
2023/08/07 02:16:11;;;;;;;5.03;3.63;;;14.50;99.90;;;;;;5093164;28;20168;-73
2023/08/07 02:18:36;;;;;;;5.10;3.63;;;14.50;99.90;;;;;;5092698;28;20286;-74
2023/08/07 02:21:02;;;;;;;3.60;3.33;;;14.50;99.90;;;;;;5092660;28;20163;-73
2023/08/07 02:23:28;;;;;;;4.20;3.50;;;14.50;99.90;;;;;;5092193;28;20163;-73
2023/08/07 02:25:54;;;;;;;3.90;3.50;;;14.50;99.90;;;;;;5092608;28;20649;-73
2023/08/07 02:28:20;;;;;;;5.90;3.87;;;14.50;99.90;;;;;;5092593;28;20522;-72
2023/08/07 02:30:50;;;;;;;4.10;3.37;;;14.50;99.90;;;;;;5092743;28;20188;-73
2023/08/07 02:33:16;;;;;;;3.83;3.50;;;14.50;99.90;;;;;;5093251;28;20617;-73
2023/08/07 02:35:42;;;;;;;4.43;4.03;;;14.50;99.90;;;;;;5092394;28;20433;-72
2023/08/07 02:38:07;;;;;;;4.53;3.87;;;14.50;99.90;;;;;;5092383;28;20210;-73
2023/08/07 02:40:33;;;;;;;4.10;3.70;;;14.60;99.90;;;;;;5092503;28;20179;-73
2023/08/07 02:42:59;;;;;;;6.00;3.53;;;14.60;99.90;;;;;;5092702;28;20166;-73
2023/08/07 02:45:24;;;;;;;4.60;4.20;;;14.70;99.90;;;;;;5092439;28;20162;-73
2023/08/07 02:47:50;;;;;;;7.23;4.60;;;14.70;99.90;;;;;;5074039;28;20194;-73
2023/08/07 02:50:16;;;;;;;6.97;4.67;;;14.70;99.90;;;;;;5074028;28;20179;-74
2023/08/07 02:52:41;;;;;;;4.53;4.00;;;14.80;99.90;;;;;;5088238;28;20637;-74
2023/08/07 02:55:07;;;;;;;6.00;4.30;;;14.80;99.90;;;;;;5092585;28;20267;-73
2023/08/07 02:57:33;;;;;;;7.70;4.07;;;14.90;99.90;;;;;;5092542;28;20203;-73
2023/08/07 02:59:58;;;;;;;7.33;4.70;;;14.90;99.90;;;;;;5092362;28;20803;-73
2023/08/07 03:02:24;;;;;;;4.90;4.40;;;14.90;99.90;;;;;;5092363;28;20181;-73
2023/08/07 03:04:49;;;;;;;6.13;3.80;;;15.00;99.90;;;;;;5092311;28;20666;-74
2023/08/07 03:07:15;;;;;;;6.60;4.10;;;15.00;99.90;;;;;;5091930;28;20254;-72
2023/08/07 03:09:41;;;;;;;5.43;4.43;;;15.00;99.90;;;;;;5122764;22;20811;-71
2023/08/07 03:12:07;;;;;;;6.33;4.57;;;15.00;99.90;;;;;;5085650;28;20183;-72
2023/08/07 03:14:32;;;;;;;5.97;4.10;;;15.00;99.90;;;;;;5093247;28;20534;-72
2023/08/07 03:16:58;;;;;;;5.60;4.53;;;15.00;99.90;;;;;;5093577;28;20404;-73
2023/08/07 03:19:24;;;;;;;5.00;4.50;;;15.00;99.90;;;;;;5093500;28;20187;-72
2023/08/07 03:21:49;;;;;;;5.73;4.33;;;15.00;99.90;;;;;;5092407;28;20158;-73
2023/08/07 03:24:15;;;;;;;5.93;5.10;;;15.00;99.90;;;;;;5092523;28;20634;-73
2023/08/07 03:26:41;;;;;;;5.67;4.70;;;15.00;99.90;;;;;;5071923;28;20172;-72
2023/08/07 03:29:06;;;;;;;9.43;5.10;;;15.00;99.90;;;;;;5071882;28;20282;-72
2023/08/07 03:31:32;;;;;;;5.67;4.57;;;15.00;99.90;;;;;;5072253;28;20677;-74
2023/08/07 03:33:58;;;;;;;7.17;4.90;;;14.90;99.90;;;;;;5071838;28;20203;-74
2023/08/07 03:36:23;;;;;;;5.93;4.40;;;14.90;99.90;;;;;;5071062;28;20170;-72
2023/08/07 03:38:49;;;;;;;6.00;5.50;;;15.00;99.90;;;;;;5071603;28;20479;-72
2023/08/07 03:41:15;;;;;;;5.30;4.73;;;15.00;99.90;;;;;;5071697;28;20638;-72
2023/08/07 03:43:40;;;;;;;11.13;4.50;;;15.00;99.90;;;;;;5053539;28;20167;-73
2023/08/07 03:46:06;;;;;;;6.03;4.33;;;15.00;99.90;;;;;;5071859;28;20164;-72
2023/08/07 03:48:32;;;;;;;5.50;4.77;;;15.00;99.90;;;;;;5071452;28;20216;-73
2023/08/07 03:51:10;;;;;;;5.77;4.63;;;15.00;99.90;;;;;;5075092;28;20551;-72
2023/08/07 03:53:37;;;;;;;5.90;5.30;;;15.10;99.90;;;;;;5083762;28;20200;-71
2023/08/07 03:56:03;;;;;;;6.60;5.33;;;15.10;99.90;;;;;;5092111;28;20416;-74
2023/08/07 03:58:29;;;;;;;5.67;5.07;;;15.10;99.90;;;;;;5089805;28;20937;-72
2023/08/07 04:00:55;;;;;;;6.13;5.00;;;15.10;99.90;;;;;;5071682;28;20402;-73
2023/08/07 04:03:21;;;;;;;6.30;4.47;;;15.10;99.90;;;;;;5054780;28;20441;-72
2023/08/07 04:05:51;;;;;;;8.30;5.30;;;15.10;99.90;;;;;;5073345;28;20898;-73
2023/08/07 04:08:16;;;;;;;6.90;5.20;;;15.10;99.90;;;;;;5071172;28;20410;-72
2023/08/07 04:10:42;;;;;;;6.80;4.97;;;15.10;99.90;;;;;;5071746;28;20912;-72
2023/08/07 04:13:08;;;;;;;6.33;5.57;;;15.10;99.90;;;;;;5071375;28;20242;-71
2023/08/07 04:15:33;;;;;;;7.73;5.10;;;15.10;99.90;;;;;;5071078;28;20546;-72
2023/08/07 04:17:59;;;;;;;10.43;4.67;;;15.20;99.90;;;;;;5071129;28;20187;-71
2023/08/07 04:20:24;;;;;;;6.53;5.27;;;15.20;99.90;;;;;;5070702;28;20268;-73
2023/08/07 04:22:50;;;;;;;7.00;5.23;;;15.30;99.90;;;;;;5070989;28;20171;-73
2023/08/07 04:25:16;;;;;;;7.63;4.80;;;15.30;99.90;;;;;;5071119;28;20174;-73
2023/08/07 04:27:41;;;;;;;7.10;5.07;;;15.40;99.90;;;;;;5071053;28;20526;-72
2023/08/07 04:30:07;;;;;;;4.80;4.20;;;15.50;99.90;;;;;;5070810;28;20183;-72
2023/08/07 04:32:33;;;;;;;7.83;4.53;;;15.50;99.90;;;;;;5070725;28;20617;-72
2023/08/07 04:34:59;;;;;;;5.77;4.60;;;15.60;99.90;;;;;;5071601;28;20485;-72
2023/08/07 04:37:24;;;;;;;6.93;3.93;;;15.50;99.90;;;;;;5072133;28;20176;-72
2023/08/07 04:39:50;;;;;;;7.57;4.93;;;15.50;99.90;;;;;;5071869;28;20219;-73
2023/08/07 04:42:16;;;;;;;5.20;3.70;;;15.50;99.90;;;;;;5072500;28;20614;-74
2023/08/07 04:44:41;;;;;;;5.93;3.60;;;15.60;99.90;;;;;;5072559;28;20165;-72
2023/08/07 04:47:07;;;;;;;8.47;3.60;;;15.60;99.90;;;;;;5072657;28;20173;-72
2023/08/07 04:49:33;;;;;;;5.27;4.00;;;15.70;99.90;;;;;;5054324;28;20219;-72
2023/08/07 04:51:58;;;;;;;7.90;3.77;;;15.70;99.90;;;;;;5084311;28;20464;-73
2023/08/07 04:54:24;;;;;;;5.37;3.90;;;15.70;99.90;;;;;;5088208;28;20573;-74
2023/08/07 04:56:49;;;;;;;4.33;3.77;;;15.80;99.90;;;;;;5092307;28;20633;-72
2023/08/07 04:59:15;;;;;;;6.90;3.97;;;15.70;99.90;;;;;;5091608;28;20559;-71
2023/08/07 05:01:41;;;;;;;7.13;4.43;;;15.80;99.90;;;;;;5092450;28;20187;-72
2023/08/07 05:04:06;;;;;;;4.10;3.70;;;15.90;99.90;;;;;;5094184;28;20171;-71
2023/08/07 05:06:32;;;;;;;3.80;3.50;;;16.00;99.90;;;;;;5065384;28;20169;-71
2023/08/07 05:08:58;;;;;;;6.03;3.50;;;16.00;99.90;;;;;;5053187;28;20463;-73
2023/08/07 05:11:23;;;;;;;4.03;3.63;;;16.10;99.90;;;;;;5071547;28;20166;-73
2023/08/07 05:13:49;;;;;;;7.87;4.67;;;16.00;99.90;;;;;;5071410;28;20830;-72
2023/08/07 05:16:14;;;;;;;5.43;3.17;;;16.00;99.90;;;;;;5071575;28;20223;-73
2023/08/07 05:18:40;;;;;;;5.27;3.20;;;16.00;99.90;;;;;;5071206;28;20690;-72
2023/08/07 05:21:08;;;;;;;3.80;3.03;;;16.10;99.90;;;;;;5071356;28;20169;-72
2023/08/07 05:23:34;;;;;;;4.90;3.20;;;16.30;99.90;;;;;;5070932;28;20173;-73
2023/08/07 05:25:59;;;;;;;4.67;3.23;;;16.30;99.90;;;;;;5071227;28;20448;-74
2023/08/07 05:28:25;;;;;;;2.73;2.53;;;16.10;99.90;;;;;;5071037;28;20194;-72
2023/08/07 05:30:50;;;;;;;3.33;3.03;;;16.30;99.90;;;;;;5071175;28;20485;-73
2023/08/07 05:33:16;;;;;;;4.00;2.90;;;16.30;99.90;;;;;;5070913;28;20259;-72
2023/08/07 05:35:42;;;;;;;4.97;3.57;;;16.20;99.90;;;;;;5071295;28;20166;-73
2023/08/07 05:38:08;;;;;;;6.53;4.03;;;16.00;99.90;;;;;;5052905;28;20173;-73
2023/08/07 05:40:36;;;;;;;5.93;3.10;;;16.00;99.90;;;;;;5070921;28;20404;-73
2023/08/07 05:43:02;;;;;;;3.77;3.27;;;16.10;99.90;;;;;;5070895;28;20256;-73
2023/08/07 05:45:27;;;;;;;4.80;3.13;;;16.10;99.90;;;;;;5071049;28;20617;-73
2023/08/07 05:47:53;;;;;;;6.40;2.97;;;16.00;99.90;;;;;;5070856;28;20209;-73
2023/08/07 05:50:19;;;;;;;2.90;2.53;;;15.90;99.90;;;;;;5077286;28;20274;-72
2023/08/07 05:52:44;;;;;;;4.63;2.77;;;16.10;99.90;;;;;;5082748;28;20207;-73
2023/08/07 05:55:10;;;;;;;4.40;2.87;;;16.40;99.90;;;;;;5091722;28;20248;-74
2023/08/07 05:57:36;;;;;;;11.20;3.50;;;16.60;99.90;;;;;;5088367;28;20168;-74
2023/08/07 06:00:02;;;;;;;7.30;3.03;;;16.40;99.90;;;;;;5075211;28;20216;-73
2023/08/07 06:02:27;;;;;;;5.57;3.10;;;16.60;99.90;;;;;;5056573;28;20177;-71
2023/08/07 06:04:54;;;;;;;9.90;3.30;;;16.40;99.90;;;;;;5074573;28;20167;-72
2023/08/07 06:07:19;;;;;;;4.50;2.80;;;16.50;99.90;;;;;;5074541;28;20159;-71
2023/08/07 06:09:45;;;;;;;3.80;3.30;;;16.80;99.90;;;;;;5074259;28;20456;-72
2023/08/07 06:12:10;;;;;;;6.23;3.20;;;16.70;99.90;;;;;;5075071;28;20189;-72
2023/08/07 06:14:37;;;;;;;3.83;3.07;;;17.00;99.90;;;;;;5074415;28;21147;-72
2023/08/07 06:17:03;;;;;;;5.23;3.10;;;17.10;99.90;;;;;;5074378;28;20162;-72
2023/08/07 06:19:28;;;;;;;4.60;4.00;;;17.10;99.90;;;;;;5073979;28;20447;-72
2023/08/07 06:21:54;;;;;;;2.07;1.93;;;17.40;99.90;;;;;;5074459;28;20233;-71
2023/08/07 06:24:20;;;;;;;3.70;2.70;;;17.30;99.90;;;;;;5065017;28;20165;-71
2023/08/07 06:26:45;;;;;;;3.07;2.73;;;17.30;99.90;;;;;;5090535;28;20164;-72
2023/08/07 06:29:11;;;;;;;8.20;6.23;;;17.20;99.90;;;;;;5080196;28;20214;-72
2023/08/07 06:31:36;;;;;;;14.20;11.33;;;17.50;99.90;;;;;;5055843;28;20192;-72
2023/08/07 06:34:02;;;;;;;3.20;2.50;;;17.70;99.90;;;;;;5073747;28;20270;-72
2023/08/07 06:36:28;;;;;;;6.13;4.87;;;17.90;99.90;;;;;;5074086;28;20529;-71
2023/08/07 06:38:54;;;;;;;3.30;2.30;;;17.90;99.90;;;;;;5055583;28;20480;-71
2023/08/07 06:41:20;;;;;;;3.67;2.53;;;17.80;99.90;;;;;;5074290;28;20270;-73
2023/08/07 06:43:45;;;;;;;3.67;3.33;;;17.80;99.90;;;;;;5074108;28;20182;-73
2023/08/07 06:46:11;;;;;;;4.90;2.60;;;18.00;99.90;;;;;;5074555;28;20507;-71
2023/08/07 06:48:37;;;;;;;2.73;2.20;;;17.30;99.90;;;;;;5075048;28;20276;-72
2023/08/07 06:51:02;;;;;;;2.27;2.07;;;17.50;99.90;;;;;;5087088;28;20260;-72
2023/08/07 06:53:28;;;;;;;5.07;2.23;;;17.80;99.90;;;;;;5092051;28;20199;-71
2023/08/07 06:55:53;;;;;;;2.30;2.10;;;17.70;99.90;;;;;;5099659;28;20167;-76
2023/08/07 06:58:19;;;;;;;2.67;1.97;;;17.70;99.90;;;;;;5097605;28;20251;-74
2023/08/07 07:00:45;;;;;;;2.43;2.23;;;17.50;99.90;;;;;;5096045;28;20196;-75
2023/08/07 07:03:11;;;;;;;1.90;1.60;;;17.60;99.90;;;;;;5098539;28;20533;-77
2023/08/07 07:05:37;;;;;;;5.20;1.90;;;17.90;99.90;;;;;;5072619;28;20430;-73
2023/08/07 07:08:03;;;;;;;3.43;3.13;;;18.10;99.90;;;;;;5073353;28;20199;-73
2023/08/07 07:10:29;;;;;;;4.17;2.87;;;17.80;99.90;;;;;;5074891;28;20509;-73
2023/08/07 07:12:55;;;;;;;2.90;2.13;;;18.00;99.90;;;;;;5076467;28;20497;-74
2023/08/07 07:15:20;;;;;;;2.63;2.00;;;18.00;99.90;;;;;;5074577;28;20167;-76
2023/08/07 07:17:46;;;;;;;2.60;1.70;;;18.30;99.90;;;;;;5078887;28;20403;-84
2023/08/07 07:20:12;;;;;;;2.10;1.70;;;18.80;99.90;;;;;;5082064;28;20188;-79
2023/08/07 07:22:37;;;;;;;3.43;1.70;;;18.90;99.90;;;;;;5073867;28;20189;-75
2023/08/07 07:25:04;;;;;;;2.37;1.60;;;19.10;99.90;;;;;;5075099;28;20699;-73
2023/08/07 07:27:30;;;;;;;6.83;2.03;;;19.20;99.90;;;;;;5073408;28;20175;-73
2023/08/07 07:29:55;;;;;;;3.77;2.10;;;19.60;99.90;;;;;;5072765;28;20524;-73
2023/08/07 07:32:21;;;;;;;3.20;1.83;;;18.80;99.90;;;;;;5073132;28;20277;-73
2023/08/07 07:34:47;;;;;;;10.53;7.00;;;19.20;99.90;;;;;;5055544;28;20204;-74
2023/08/07 07:37:14;;;;;;;2.50;1.90;;;20.00;99.90;;;;;;5071838;28;20170;-77
2023/08/07 07:39:39;;;;;;;2.67;1.70;;;19.80;99.90;;;;;;5054785;28;20192;-74
2023/08/07 07:42:07;;;;;;;5.10;1.60;;;19.20;99.90;;;;;;5052378;28;20986;-73
2023/08/07 07:44:33;;;;;;;3.73;1.70;;;19.30;99.90;;;;;;5051791;28;20217;-71
2023/08/07 07:46:59;;;;;;;4.00;1.67;;;19.50;99.90;;;;;;5051288;28;20442;-76
2023/08/07 07:49:25;;;;;;;3.67;1.70;;;19.00;99.90;;;;;;5050812;28;20454;-75
2023/08/07 07:51:50;;;;;;;2.30;1.53;;;19.30;99.90;;;;;;5050310;28;20183;-74
2023/08/07 07:54:16;;;;;;;2.77;1.77;;;19.50;99.90;;;;;;5051896;28;20185;-73
2023/08/07 07:56:43;;;;;;;3.07;1.80;;;19.60;99.90;;;;;;5056854;28;20319;-72
2023/08/07 07:59:08;;;;;;;4.47;1.60;;;20.20;99.90;;;;;;5044433;28;20727;-73
2023/08/07 08:01:34;;;;;;;3.10;1.60;;;19.70;99.90;;;;;;5053540;28;20434;-76
2023/08/07 08:03:59;;;;;;;7.80;2.80;;;19.20;99.90;;;;;;5047730;28;20175;-73
2023/08/07 08:06:25;;;;;;;2.30;1.63;;;19.30;99.90;;;;;;5051053;28;20226;-72
2023/08/07 08:08:50;;;;;;;2.77;1.90;;;19.30;99.90;;;;;;5053736;28;20222;-73
2023/08/07 08:11:16;;;;;;;3.17;2.17;;;19.20;99.90;;;;;;5050757;28;20254;-73
2023/08/07 08:13:42;;;;;;;7.03;1.83;;;19.30;99.90;;;;;;5049097;28;20197;-73
2023/08/07 08:16:07;;;;;;;6.60;2.30;;;19.10;99.90;;;;;;5039042;28;20648;-73
2023/08/07 08:18:33;;;;;;;4.10;2.03;;;18.70;99.90;;;;;;5049944;28;20720;-72
2023/08/07 08:20:59;;;;;;;6.53;4.77;;;18.90;99.90;;;;;;5050065;28;20289;-73
2023/08/07 08:23:24;;;;;;;4.90;2.97;;;18.80;99.90;;;;;;5049275;28;20176;-73
2023/08/07 08:25:50;;;;;;;2.60;1.97;;;19.00;99.90;;;;;;5050628;28;20183;-73
2023/08/07 08:28:17;;;;;;;4.70;1.70;;;18.90;99.90;;;;;;5049312;28;20179;-73
2023/08/07 08:30:45;;;;;;;3.50;1.90;;;18.70;99.90;;;;;;5053127;28;20937;-73
2023/08/07 08:33:14;;;;;;;2.93;2.40;;;18.80;99.90;;;;;;5049492;28;20852;-73
2023/08/07 08:35:40;;;;;;;4.30;2.10;;;18.30;99.90;;;;;;5050734;28;20427;-77
2023/08/07 08:38:06;;;;;;;3.77;2.30;;;18.10;99.90;;;;;;5050724;28;20433;-74
2023/08/07 08:40:32;;;;;;;3.67;2.33;;;18.50;99.90;;;;;;5049563;28;20525;-72
2023/08/07 08:43:00;;;;;;;3.97;3.30;;;18.80;99.90;;;;;;5049900;28;20444;-73
2023/08/07 08:45:28;;;;;;;5.97;2.53;;;18.70;99.90;;;;;;5053817;28;20788;-72
2023/08/07 08:48:03;;;;;;;31.77;21.60;;;19.20;99.90;;;;;;5053463;28;20437;-69
2023/08/07 08:50:30;;;;;;;18.33;12.47;;;19.30;99.90;;;;;;5050741;28;20899;-78
2023/08/07 08:52:57;;;;;;;4.83;3.33;;;19.00;99.90;;;;;;5049368;28;20467;-69
2023/08/07 08:55:23;;;;;;;11.90;8.70;;;19.20;99.90;;;;;;5049849;28;20439;-72
2023/08/07 08:57:53;;;;;;;24.10;17.53;;;19.60;99.90;;;;;;5048636;28;20433;-72
2023/08/07 09:00:23;;;;;;;3.30;2.27;;;20.10;99.90;;;;;;5050928;28;20521;-72
2023/08/07 09:02:50;;;;;;;9.30;6.47;;;19.60;99.90;;;;;;5049934;28;20469;-72
2023/08/07 09:05:18;;;;;;;4.70;4.03;;;19.80;99.90;;;;;;5050893;28;20793;-72
2023/08/07 09:07:46;;;;;;;9.33;5.73;;;19.70;99.90;;;;;;5056245;28;20432;-75
2023/08/07 09:10:13;;;;;;;5.87;3.00;;;19.80;99.90;;;;;;5049327;28;20819;-71
2023/08/07 09:12:42;;;;;;;4.17;2.50;;;20.00;99.90;;;;;;5051121;28;20467;-77
2023/08/07 09:15:10;;;;;;;2.27;1.70;;;19.60;99.90;;;;;;5053323;28;20435;-77
2023/08/07 09:17:40;;;;;;;3.10;1.80;;;19.60;99.90;;;;;;5055609;28;20437;-70
2023/08/07 09:20:12;;;;;;;3.00;1.77;;;19.60;99.90;;;;;;5058295;28;20545;-70
2023/08/07 09:22:40;;;;;;;3.00;2.00;;;19.80;99.90;;;;;;5051751;28;20442;-73
2023/08/07 09:25:06;;;;;;;2.43;1.97;;;19.50;99.90;;;;;;5050524;28;21104;-70
2023/08/07 09:27:33;;;;;;;4.53;3.93;;;19.40;99.90;;;;;;5048506;28;20437;-70
2023/08/07 09:29:59;;;;;;;2.20;1.63;;;19.80;99.90;;;;;;5050812;28;20819;-70
2023/08/07 09:32:24;;;;;;;6.47;2.43;;;20.20;99.90;;;;;;5048760;28;20840;-70
2023/08/07 09:34:51;;;;;;;4.60;2.10;;;20.00;99.90;;;;;;5054860;28;20487;-69
2023/08/07 09:37:17;;;;;;;2.30;2.10;;;20.00;99.90;;;;;;5058752;28;20182;-70
2023/08/07 09:39:43;;;;;;;5.67;1.93;;;20.60;99.90;;;;;;5052634;28;20448;-70
2023/08/07 09:42:16;;;;;;;2.00;1.80;;;20.60;99.90;;;;;;5053800;28;20185;-70
2023/08/07 09:44:42;;;;;;;1.33;1.23;;;20.90;99.90;;;;;;5053128;28;20180;-70
2023/08/07 09:47:18;;;;;;;3.53;1.90;;;20.60;99.90;;;;;;5056424;28;20443;-70
2023/08/07 09:49:45;;;;;;;3.60;1.67;;;20.60;99.90;;;;;;5052427;28;20443;-69
2023/08/07 09:52:15;;;;;;;2.00;1.33;;;20.00;99.90;;;;;;5059056;28;20968;-70
2023/08/07 09:54:41;;;;;;;4.73;2.00;;;19.90;99.90;;;;;;5083476;28;20780;-70
2023/08/07 09:57:07;;;;;;;1.60;1.40;;;20.40;99.90;;;;;;5073571;28;20410;-70
2023/08/07 09:59:34;;;;;;;4.30;2.17;;;20.30;99.90;;;;;;5081331;28;20448;-71
2023/08/07 10:02:04;;;;;;;3.00;2.30;;;20.30;99.90;;;;;;5094967;28;20169;-71
2023/08/07 10:04:30;;;;;;;1.57;1.43;;;20.50;99.90;;;;;;5093954;28;20417;-71
2023/08/07 10:06:57;;;;;;;2.53;2.00;;;20.40;99.90;;;;;;5074484;28;20464;-72
2023/08/07 10:09:23;;;;;;;3.23;1.83;;;20.10;99.90;;;;;;5073364;28;20454;-70
2023/08/07 10:11:50;;;;;;;2.00;1.40;;;20.00;99.90;;;;;;5074173;28;20432;-69
2023/08/07 10:14:18;;;;;;;3.90;1.87;;;19.90;99.90;;;;;;5056359;28;20423;-72
2023/08/07 10:16:45;;;;;;;2.80;1.90;;;19.70;99.90;;;;;;5073942;28;20437;-69
2023/08/07 10:19:11;;;;;;;2.13;1.50;;;19.60;99.90;;;;;;5074447;28;20941;-69
2023/08/07 10:21:39;;;;;;;4.80;1.97;;;19.60;99.90;;;;;;5074342;28;20472;-71
2023/08/07 10:24:06;;;;;;;3.20;1.90;;;19.40;99.90;;;;;;5056154;28;20197;-70
2023/08/07 10:26:43;;;;;;;3.03;2.70;;;19.20;99.90;;;;;;5074194;28;20489;-69
2023/08/07 10:29:13;;;;;;;9.10;4.80;;;19.60;99.90;;;;;;5073759;28;20512;-70
2023/08/07 10:31:40;;;;;;;3.37;1.63;;;19.70;99.90;;;;;;5073374;28;20442;-70
2023/08/07 10:34:06;;;;;;;6.37;3.40;;;19.80;99.90;;;;;;5073837;28;20446;-70
2023/08/07 10:36:34;;;;;;;1.70;1.60;;;20.30;99.90;;;;;;5073797;28;20465;-70
2023/08/07 10:39:11;;;;;;;4.97;3.57;;;20.30;99.90;;;;;;5073523;28;20457;-70
2023/08/07 10:41:46;;;;;;;2.67;2.40;;;20.70;99.90;;;;;;5073745;28;20923;-71
2023/08/07 10:44:24;;;;;;;4.60;3.83;;;20.90;99.90;;;;;;5073145;28;20431;-70
2023/08/07 10:46:55;;;;;;;4.90;2.90;;;20.80;99.90;;;;;;5080339;28;20406;-70
2023/08/07 10:49:37;;;;;;;4.57;3.60;;;20.70;99.90;;;;;;5078058;28;20434;-70
2023/08/07 10:52:08;;;;;;;12.50;8.20;;;21.40;99.90;;;;;;5073486;28;20791;-70
2023/08/07 10:54:44;;;;;;;6.53;3.00;;;20.90;99.90;;;;;;5079343;28;20427;-70
2023/08/07 10:57:12;;;;;;;5.13;2.73;;;21.00;99.90;;;;;;5055514;28;20418;-70
2023/08/07 10:59:38;;;;;;;7.17;2.47;;;20.50;99.90;;;;;;5061456;28;20425;-70
2023/08/07 11:02:11;;;;;;;4.70;2.67;;;20.40;99.90;;;;;;5054729;28;20397;-71
2023/08/07 11:04:37;;;;;;;6.00;2.33;;;20.60;99.90;;;;;;5037129;28;20406;-71
2023/08/07 11:07:03;;;;;;;2.30;1.53;;;20.30;99.90;;;;;;5065170;28;20455;-70
2023/08/07 11:09:29;;;;;;;3.80;1.77;;;19.70;99.90;;;;;;5071138;28;20450;-71
2023/08/07 11:11:54;;;;;;;4.90;2.60;;;19.30;99.90;;;;;;5082571;28;20411;-70
2023/08/07 11:14:20;;;;;;;2.60;1.87;;;19.10;99.90;;;;;;5055104;28;20909;-69
2023/08/07 11:16:48;;;;;;;3.50;2.43;;;18.10;99.90;;;;;;5073640;28;20180;-70
2023/08/07 11:19:15;;;;;;;12.90;2.03;;;17.80;99.90;;;;;;5073063;28;20186;-70
2023/08/07 11:21:42;;;;;;;7.80;3.10;;;17.50;99.90;;;;;;5071534;28;20424;-70
2023/08/07 11:24:13;;;;;;;5.23;2.70;;;17.60;99.90;;;;;;5078752;28;21256;-70
2023/08/07 11:26:39;;;;;;;5.87;1.93;;;18.00;99.90;;;;;;5074071;28;20429;-70
2023/08/07 11:29:05;;;;;;;2.27;2.07;;;18.50;99.90;;;;;;5074881;28;20503;-70
2023/08/07 11:31:30;;;;;;;1.90;1.80;;;18.60;99.90;;;;;;5068296;28;20185;-70
2023/08/07 11:33:57;;;;;;;3.50;2.93;;;18.60;99.90;;;;;;5067700;28;20202;-73
2023/08/07 11:36:24;;;;;;;2.53;2.33;;;18.90;99.90;;;;;;5078681;28;20573;-69
2023/08/07 11:38:49;;;;;;;4.63;2.87;;;19.00;99.90;;;;;;5077853;28;20532;-69
2023/08/07 11:41:17;;;;;;;3.00;2.20;;;18.80;99.90;;;;;;5074569;28;20848;-72
2023/08/07 11:43:43;;;;;;;4.80;1.83;;;18.60;99.90;;;;;;5078923;28;20604;-73
2023/08/07 11:46:10;;;;;;;5.83;1.93;;;18.40;99.90;;;;;;5067614;28;20419;-72
2023/08/07 11:48:37;;;;;;;2.53;1.70;;;18.40;99.90;;;;;;5064533;28;20453;-69
2023/08/07 11:51:04;;;;;;;1.70;1.50;;;18.80;99.90;;;;;;5069185;28;20535;-69
2023/08/07 11:53:32;;;;;;;1.97;1.77;;;19.30;99.90;;;;;;5072170;28;20460;-70
2023/08/07 11:56:04;;;;;;;6.27;1.93;;;19.70;99.90;;;;;;5077706;28;20454;-70
2023/08/07 11:58:35;;;;;;;2.53;1.87;;;19.70;99.90;;;;;;5064276;28;21265;-70
2023/08/07 12:01:12;;;;;;;3.23;1.53;;;19.60;99.90;;;;;;5071734;28;20427;-70
2023/08/07 12:03:41;;;;;;;3.83;1.50;;;19.70;99.90;;;;;;5078855;28;20470;-70
2023/08/07 12:06:08;;;;;;;10.03;5.70;;;20.00;99.90;;;;;;5058405;28;20438;-69
2023/08/07 12:08:41;;;;;;;2.13;1.93;;;19.90;99.90;;;;;;5079685;28;20518;-70
2023/08/07 12:11:12;;;;;;;1.93;1.63;;;19.80;99.90;;;;;;5071296;28;20425;-70
2023/08/07 12:13:45;;;;;;;2.80;1.40;;;19.90;99.90;;;;;;5089437;28;20453;-70
2023/08/07 12:16:15;;;;;;;5.03;2.07;;;20.30;99.90;;;;;;5092510;28;20395;-70
2023/08/07 12:18:45;;;;;;;3.40;1.80;;;20.40;99.90;;;;;;5074115;28;20810;-70
2023/08/07 12:21:10;;;;;;;6.47;1.93;;;20.60;99.90;;;;;;5084561;28;20432;-70
2023/08/07 12:23:37;;;;;;;3.27;1.83;;;20.60;99.90;;;;;;5081204;28;20919;-70
2023/08/07 12:26:06;;;;;;;5.50;1.47;;;20.30;99.90;;;;;;5079886;28;20215;-72
2023/08/07 12:28:31;;;;;;;4.00;1.90;;;20.60;99.90;;;;;;5071708;28;20484;-70
2023/08/07 12:30:57;;;;;;;2.93;1.90;;;20.60;99.90;;;;;;5073877;28;20462;-70
2023/08/07 12:33:23;;;;;;;3.00;1.73;;;21.00;99.90;;;;;;5083069;28;20207;-70
2023/08/07 12:35:48;;;;;;;2.70;1.90;;;20.50;99.90;;;;;;5081335;28;20533;-70
2023/08/07 12:38:14;;;;;;;4.63;1.63;;;20.40;99.90;;;;;;5079514;28;20186;-70
2023/08/07 12:40:40;;;;;;;2.73;1.90;;;20.30;99.90;;;;;;5081274;28;20538;-70
2023/08/07 12:43:07;;;;;;;4.77;2.10;;;19.80;99.90;;;;;;5080002;28;21148;-71